Aérodrome de Bordeaux-Léognan-Saucats

METAR LFBM TAF LFBM
1 °C
°C
-
°C
15m
Alter
05:15:18
LT
04:15
UTC
0 ft

1.000

2.000

3.000

4.000

5.000

OVC 3.600
VFR
<?= Yii::t('app', 'Wind direction') ?> <?= Yii::t('app', 'of'); ?>
VAR
08:21
Sonne auf
93%
Luftfeuchtigkeit
Windscherung
Geschlossen/Schnee
RWY-Sichtweite
RWY Zustand
Vert. Sichtweite
Min. Sichtbarkeit
CAVOK
Trend
Korrektur
Besonderer Bericht
1031 hPa
QNH
METAR LFBM 300400Z AUTO VRB02KT 9999 OVC036 01/00 Q1031 TEMPO 4000 BR
Klar
1 kt
1 kt
05:00
IFR
2 kt
06:00
IFR
2 kt
07:00
VFR
2 kt
08:00
VFR
2 kt
09:00
VFR
2 kt
10:00
VFR
2 kt
11:00
VFR
2 kt
10 km+
Sichtweite
3.600 ft
Wolkendecke
2 kt
Wind
metar-taf.com/LFCS

Metar-Taf.com

Visueller Decoder

Wir und Dritte verfolgen dein Internetverhalten auf unserer Website mit Cookies. Wenn du fortfährst, gehen wir davon aus, dass du mit unserer Cookie-Richtlinie einverstanden bist.